Terminal Aerodrome Forecast
Issued by NWS Sterling, VA

Current Version | Previous Version | Text Only | Print | Product List | Glossary Off
Versions: 1 2 3 4 5 6 7 8 9 10 11 12 13 14 15 16 17 18 19 20 21 22 23 24 25

243
FTUS41 KLWX 220534
TAFIAD
TAF
KIAD 220534Z 2206/2312 00000KT P6SM BKN090 OVC200
     FM221100 VRB03KT P6SM SCT110
     FM221600 26006KT P6SM SCT050 BKN090
     FM222000 22007KT P6SM BKN050=

USA.gov is the U.S. government's official web portal to all federal, state and local government web resources and services.